Time;durP1;ratioP1;P1;durP2;ratioP2;P2;SDS_P1;SDS_P2;PMS_P1;PMS_P2;Temp;Humidity;BMP_temperature;BMP_pressure;BME280_temperature;BME280_humidity;BME280_pressure;Samples;Min_cycle;Max_cycle;Signal;HPM_P1;HPM_P2
2022/10/11 00:01:23;;;;;;;12.30;8.20;;;;;;;7.64;75.83;100401.91;126877;1285;107357;-71
2022/10/11 00:04:29;;;;;;;16.80;7.90;;;;;;;7.63;75.94;100399.86;127044;1278;107651;-74
2022/10/11 00:07:34;;;;;;;13.20;7.20;;;;;;;7.63;75.89;100402.16;126969;1280;107451;-72
2022/10/11 00:10:40;;;;;;;14.10;7.60;;;;;;;7.64;75.94;100400.52;127022;1285;107359;-73
2022/10/11 00:13:45;;;;;;;14.00;8.30;;;;;;;7.68;76.21;100402.11;127079;1272;107287;-72
2022/10/11 00:16:51;;;;;;;12.40;8.10;;;;;;;7.71;76.19;100401.00;126976;1278;107383;-71
2022/10/11 00:19:56;;;;;;;17.60;8.80;;;;;;;7.72;76.18;100400.20;127003;1286;107533;-72
2022/10/11 00:23:02;;;;;;;11.20;7.70;;;;;;;7.71;76.32;100399.55;127009;1278;107450;-72
2022/10/11 00:26:10;;;;;;;16.40;8.70;;;;;;;7.70;76.14;100398.05;126978;1279;107574;-73
2022/10/11 00:29:15;;;;;;;12.80;8.60;;;;;;;7.69;76.60;100400.25;126951;1286;107529;-72
2022/10/11 00:32:21;;;;;;;10.60;7.10;;;;;;;7.68;76.39;100399.45;126966;1279;107401;-72
2022/10/11 00:35:26;;;;;;;11.30;7.10;;;;;;;7.70;76.64;100403.21;126931;1279;107360;-72
2022/10/11 00:38:32;;;;;;;14.20;8.50;;;;;;;7.74;76.65;100405.89;127004;1286;107512;-72
2022/10/11 00:41:37;;;;;;;13.00;7.50;;;;;;;7.80;76.70;100401.98;126926;1279;107498;-72
2022/10/11 00:44:46;;;;;;;12.70;7.70;;;;;;;7.87;76.82;100403.52;126895;1285;107556;-71
2022/10/11 00:47:51;;;;;;;13.90;8.00;;;;;;;7.93;76.81;100399.83;127165;1286;107598;-72
2022/10/11 00:51:00;;;;;;;12.10;8.20;;;;;;;7.97;77.10;100402.33;127013;1272;107545;-72
2022/10/11 00:54:07;;;;;;;15.00;9.00;;;;;;;7.98;77.06;100397.48;126957;1278;105604;-72
2022/10/11 00:57:17;;;;;;;12.60;8.60;;;;;;;7.98;77.03;100400.84;126888;1272;107540;-72
2022/10/11 01:00:23;;;;;;;12.90;7.80;;;;;;;7.95;77.06;100395.92;126883;1278;106611;-71
2022/10/11 01:03:31;;;;;;;11.60;7.30;;;;;;;7.95;77.20;100397.13;126829;1279;107638;-72
2022/10/11 01:06:37;;;;;;;14.30;8.20;;;;;;;7.99;77.29;100395.20;127075;1284;107129;-71
2022/10/11 01:09:42;;;;;;;13.60;8.30;;;;;;;8.07;77.57;100393.69;126941;1279;107512;-71
2022/10/11 01:12:59;;;;;;;12.80;8.30;;;;;;;8.17;77.60;100385.49;127236;1278;107446;-72
2022/10/11 01:16:12;;;;;;;13.00;8.50;;;;;;;8.25;77.64;100381.59;127157;1286;107333;-74
2022/10/11 01:19:35;;;;;;;13.80;9.00;;;;;;;8.31;77.69;100381.80;126986;1278;107350;-73
2022/10/11 01:23:04;;;;;;;13.50;9.00;;;;;;;8.35;77.75;100375.83;126880;1279;107589;-74
2022/10/11 01:26:33;;;;;;;13.00;8.50;;;;;;;8.38;77.82;100371.77;126945;1279;107517;-73
2022/10/11 01:29:52;;;;;;;13.50;8.30;;;;;;;8.43;77.94;100376.86;127254;1278;107205;-73
2022/10/11 01:33:13;;;;;;;13.20;8.10;;;;;;;8.51;78.11;100376.54;127278;1280;107352;-74
2022/10/11 01:36:27;;;;;;;16.80;9.00;;;;;;;8.59;78.05;100373.70;127347;1279;106618;-73
2022/10/11 01:39:36;;;;;;;13.90;8.70;;;;;;;8.67;78.20;100373.83;127338;1279;107510;-73
2022/10/11 01:42:43;;;;;;;14.00;9.30;;;;;;;8.74;78.35;100374.52;127232;1272;107529;-73
2022/10/11 01:45:52;;;;;;;16.80;9.80;;;;;;;8.77;78.19;100370.45;127335;1285;107393;-74
2022/10/11 01:48:59;;;;;;;12.30;9.10;;;;;;;8.80;78.30;100371.08;127334;1271;106324;-73
2022/10/11 01:52:07;;;;;;;14.90;8.80;;;;;;;8.81;78.51;100376.45;127170;1278;107370;-73
2022/10/11 01:55:25;;;;;;;11.80;8.00;;;;;;;8.84;78.62;100377.98;126918;1284;107587;-72
2022/10/11 01:58:45;;;;;;;15.60;8.70;;;;;;;8.89;78.78;100373.27;126948;1271;108147;-72
2022/10/11 02:02:00;;;;;;;12.70;8.80;;;;;;;8.96;78.89;100376.71;127023;1285;107257;-71
2022/10/11 02:05:13;;;;;;;15.30;9.50;;;;;;;9.03;78.65;100372.59;126958;1285;107609;-71
2022/10/11 02:08:25;;;;;;;15.50;9.90;;;;;;;9.08;78.82;100372.48;126967;1279;105929;-71
2022/10/11 02:11:33;;;;;;;14.40;9.70;;;;;;;9.11;78.89;100372.91;127043;1279;107207;-71
2022/10/11 02:14:42;;;;;;;14.50;9.20;;;;;;;9.12;78.83;100369.39;126994;1278;107958;-71
2022/10/11 02:17:52;;;;;;;15.60;8.90;;;;;;;9.15;79.03;100376.26;127036;1286;107417;-71
2022/10/11 02:20:59;;;;;;;15.00;9.60;;;;;;;9.20;79.31;100373.14;127146;1279;107398;-73
2022/10/11 02:24:11;;;;;;;14.10;9.60;;;;;;;9.27;79.13;100369.69;126981;1278;107526;-72
2022/10/11 02:27:19;;;;;;;15.10;10.30;;;;;;;9.33;78.99;100371.77;127091;1285;106542;-71
2022/10/11 02:30:24;;;;;;;14.80;10.00;;;;;;;9.37;79.36;100372.12;126955;1279;105796;-70
2022/10/11 02:33:36;;;;;;;13.30;9.30;;;;;;;9.40;79.24;100374.27;127000;1295;107572;-71
2022/10/11 02:36:47;;;;;;;14.10;9.40;;;;;;;9.43;79.24;100379.84;126876;1279;107367;-71
2022/10/11 02:40:02;;;;;;;13.40;8.30;;;;;;;9.44;79.46;100381.69;127017;1278;107957;-71
2022/10/11 02:43:16;;;;;;;12.10;7.80;;;;;;;9.45;79.55;100374.40;127105;1285;107519;-70
2022/10/11 02:46:22;;;;;;;12.20;8.80;;;;;;;9.49;79.75;100379.89;126842;1279;107597;-73
2022/10/11 02:49:28;;;;;;;13.80;9.50;;;;;;;9.55;79.86;100379.15;127102;1279;107511;-73
2022/10/11 02:52:34;;;;;;;13.90;9.00;;;;;;;9.61;79.62;100373.76;127107;1278;107650;-71
2022/10/11 02:55:39;;;;;;;16.30;9.80;;;;;;;9.64;79.64;100379.20;126902;1286;107291;-71
2022/10/11 02:58:45;;;;;;;12.30;9.00;;;;;;;9.66;80.19;100375.60;126997;1278;107632;-71
2022/10/11 03:01:50;;;;;;;11.70;7.60;;;;;;;9.65;80.14;100376.96;127399;1279;107316;-69
2022/10/11 03:04:56;;;;;;;10.10;7.10;;;;;;;9.63;80.17;100381.34;127036;1279;108186;-71
2022/10/11 03:08:01;;;;;;;12.50;8.00;;;;;;;9.63;80.25;100387.77;126998;1284;107392;-73
2022/10/11 03:11:07;;;;;;;11.10;8.70;;;;;;;9.63;80.30;100390.40;127036;1286;107381;-71
2022/10/11 03:14:13;;;;;;;13.90;9.30;;;;;;;9.63;80.20;100388.87;126877;1279;107256;-71
2022/10/11 03:17:18;;;;;;;11.90;8.40;;;;;;;9.62;80.45;100391.97;126978;1284;107666;-70
2022/10/11 03:20:24;;;;;;;12.60;9.30;;;;;;;9.60;80.47;100391.05;126775;1275;107245;-71
2022/10/11 03:23:30;;;;;;;12.60;9.40;;;;;;;9.55;80.59;100396.51;127079;1280;107503;-71
2022/10/11 03:26:35;;;;;;;12.50;7.90;;;;;;;9.49;80.41;100401.68;127131;1278;105547;-71
2022/10/11 03:29:41;;;;;;;14.40;7.70;;;;;;;9.43;80.61;100406.34;126956;1278;108337;-72
2022/10/11 03:32:46;;;;;;;11.90;8.50;;;;;;;9.37;80.47;100410.42;126946;1278;107372;-72
2022/10/11 03:35:51;;;;;;;13.10;8.80;;;;;;;9.34;80.63;100416.21;126963;1279;107523;-71
2022/10/11 03:38:57;;;;;;;10.60;7.90;;;;;;;9.31;80.74;100414.38;126899;1278;107353;-72
2022/10/11 03:42:02;;;;;;;13.60;8.90;;;;;;;9.25;80.82;100412.26;126941;1286;107393;-72
2022/10/11 03:45:09;;;;;;;11.60;8.40;;;;;;;9.16;80.55;100413.95;126942;1279;107391;-72
2022/10/11 03:48:15;;;;;;;11.60;8.50;;;;;;;9.08;80.73;100416.52;126924;1279;107574;-72
2022/10/11 03:51:20;;;;;;;11.90;8.10;;;;;;;8.95;80.68;100421.67;126987;1286;105651;-72
2022/10/11 03:54:26;;;;;;;14.60;7.60;;;;;;;8.86;80.97;100422.91;127120;1272;107472;-74
2022/10/11 03:57:31;;;;;;;16.00;8.90;;;;;;;8.80;80.83;100425.73;127177;1272;108634;-73
2022/10/11 04:00:37;;;;;;;17.50;9.40;;;;;;;8.76;81.00;100424.64;127304;1280;107567;-73
2022/10/11 04:03:42;;;;;;;18.20;9.80;;;;;;;8.74;80.96;100423.13;127205;1278;107282;-72
2022/10/11 04:06:48;;;;;;;15.40;9.30;;;;;;;8.70;80.90;100426.30;127297;1278;107527;-72
2022/10/11 04:09:53;;;;;;;14.60;9.50;;;;;;;8.65;80.91;100430.95;127310;1271;107637;-72
2022/10/11 04:12:59;;;;;;;17.20;9.70;;;;;;;8.59;81.00;100438.73;127385;1271;107340;-73
2022/10/11 04:16:05;;;;;;;12.30;7.90;;;;;;;8.54;81.31;100439.53;127407;1279;107541;-73
2022/10/11 04:19:10;;;;;;;10.60;7.00;;;;;;;8.50;81.15;100439.04;127432;1278;107534;-73
2022/10/11 04:22:16;;;;;;;15.70;8.70;;;;;;;8.45;80.98;100459.13;127104;1278;107294;-73
2022/10/11 04:25:21;;;;;;;13.00;9.10;;;;;;;8.41;81.32;100461.04;127228;1278;107508;-72
2022/10/11 04:28:27;;;;;;;13.70;9.50;;;;;;;8.41;81.52;100461.76;127281;1272;107713;-73
2022/10/11 04:31:33;;;;;;;14.20;10.10;;;;;;;8.43;81.62;100464.31;127488;1279;107432;-73
2022/10/11 04:34:39;;;;;;;14.90;10.70;;;;;;;8.42;81.71;100467.36;126979;1278;108048;-72
2022/10/11 04:37:44;;;;;;;12.80;8.60;;;;;;;8.39;81.72;100469.59;127182;1278;107343;-73
2022/10/11 04:40:50;;;;;;;12.90;8.60;;;;;;;8.37;82.11;100461.97;127174;1279;106524;-73
2022/10/11 04:43:55;;;;;;;15.10;10.50;;;;;;;8.38;82.17;100461.48;126954;1286;107516;-71
2022/10/11 04:47:00;;;;;;;17.00;11.00;;;;;;;8.43;82.48;100476.33;127216;1286;108628;-72
2022/10/11 04:50:07;;;;;;;16.10;11.10;;;;;;;8.49;82.53;100473.31;127091;1279;107528;-73
2022/10/11 04:53:12;;;;;;;17.80;12.20;;;;;;;8.55;82.90;100481.64;127213;1286;107490;-71
2022/10/11 04:56:18;;;;;;;16.50;10.40;;;;;;;8.59;83.02;100470.15;127206;1279;107307;-71
2022/10/11 04:59:23;;;;;;;17.30;10.00;;;;;;;8.63;83.31;100474.53;127111;1278;107492;-72
2022/10/11 05:02:29;;;;;;;18.20;12.40;;;;;;;8.71;83.65;100484.70;126980;1281;107487;-76
2022/10/11 05:05:34;;;;;;;15.80;10.90;;;;;;;8.81;83.61;100485.75;127004;1278;107749;-70
2022/10/11 05:08:40;;;;;;;16.60;11.70;;;;;;;8.89;83.50;100488.83;127096;1278;107453;-71
2022/10/11 05:11:45;;;;;;;15.30;11.50;;;;;;;8.94;83.55;100489.35;127187;1271;108140;-72
2022/10/11 05:14:50;;;;;;;14.60;10.10;;;;;;;8.98;83.57;100488.86;127012;1278;105709;-70
2022/10/11 05:17:56;;;;;;;15.10;9.70;;;;;;;9.01;83.52;100489.13;126997;1286;107976;-72
2022/10/11 05:21:03;;;;;;;63.70;38.50;;;;;;;9.07;83.98;100494.98;127238;1279;107506;-71
2022/10/11 05:24:09;;;;;;;64.10;40.20;;;;;;;9.16;83.93;100508.36;126855;1279;107531;-69
2022/10/11 05:27:15;;;;;;;30.70;19.30;;;;;;;9.26;84.02;100509.10;126847;1271;106591;-69
2022/10/11 05:30:20;;;;;;;25.10;17.20;;;;;;;9.34;83.86;100508.33;126794;1279;108116;-70
2022/10/11 05:33:26;;;;;;;19.10;12.10;;;;;;;9.43;84.24;100512.34;126865;1281;108723;-70
2022/10/11 05:36:31;;;;;;;15.70;12.30;;;;;;;9.53;84.28;100518.17;126845;1278;106620;-70
2022/10/11 05:39:37;;;;;;;21.80;15.80;;;;;;;9.67;84.20;100522.27;126840;1279;108929;-70
2022/10/11 05:42:42;;;;;;;29.10;20.30;;;;;;;9.79;84.39;100525.77;126785;1278;108144;-70
2022/10/11 05:45:47;;;;;;;76.00;45.90;;;;;;;9.95;84.35;100524.15;126950;1284;108725;-70
2022/10/11 05:48:53;;;;;;;30.20;22.10;;;;;;;10.09;84.03;100534.70;127018;1279;108471;-69
2022/10/11 05:51:58;;;;;;;23.10;17.50;;;;;;;10.22;84.13;100533.15;126760;1278;107289;-70
2022/10/11 05:55:04;;;;;;;68.30;47.40;;;;;;;10.35;84.39;100536.06;126927;1278;107538;-69
2022/10/11 05:58:12;;;;;;;71.40;54.30;;;;;;;10.48;84.33;100543.79;127009;1278;107363;-70
2022/10/11 06:01:23;;;;;;;23.70;16.20;;;;;;;10.63;84.72;100553.52;126956;1279;106757;-70
2022/10/11 06:04:29;;;;;;;43.40;29.90;;;;;;;10.74;84.91;100554.25;126875;1278;107992;-70
2022/10/11 06:07:37;;;;;;;56.30;36.70;;;;;;;10.83;85.30;100561.23;126885;1279;108035;-70
2022/10/11 06:10:43;;;;;;;22.60;16.20;;;;;;;10.91;84.76;100566.52;127179;1272;107507;-70
2022/10/11 06:13:49;;;;;;;18.40;12.80;;;;;;;10.97;85.31;100574.09;127063;1279;108090;-70
2022/10/11 06:16:54;;;;;;;19.80;14.10;;;;;;;11.03;85.00;100580.27;127084;1278;107926;-70
2022/10/11 06:20:00;;;;;;;21.10;16.00;;;;;;;11.09;85.12;100586.09;126961;1272;106359;-70
2022/10/11 06:23:05;;;;;;;28.60;19.00;;;;;;;11.16;84.76;100588.81;127044;1278;108071;-71
2022/10/11 06:26:11;;;;;;;22.10;16.00;;;;;;;11.23;84.78;100598.34;127171;1272;107331;-71
2022/10/11 06:29:17;;;;;;;17.10;12.30;;;;;;;11.24;84.93;100602.10;127185;1278;107526;-70
2022/10/11 06:32:22;;;;;;;15.40;10.70;;;;;;;11.23;85.10;100609.50;127082;1279;106484;-70
2022/10/11 06:35:28;;;;;;;28.40;21.10;;;;;;;11.24;84.77;100621.06;127061;1286;107338;-74
2022/10/11 06:38:33;;;;;;;21.20;13.40;;;;;;;11.25;85.16;100624.64;127235;1278;107378;-73
2022/10/11 06:41:39;;;;;;;17.40;12.90;;;;;;;11.23;85.18;100631.80;127130;1279;108480;-77
2022/10/11 06:44:44;;;;;;;18.40;14.00;;;;;;;11.21;85.21;100635.17;127149;1278;105771;-69
2022/10/11 06:47:49;;;;;;;17.00;11.40;;;;;;;11.20;85.24;100641.65;126911;1278;108007;-70
2022/10/11 06:50:55;;;;;;;19.60;13.60;;;;;;;11.18;85.60;100650.63;127010;1278;108178;-71
2022/10/11 06:54:01;;;;;;;17.80;13.50;;;;;;;11.12;85.80;100658.36;127226;1275;108155;-70
2022/10/11 06:57:07;;;;;;;19.00;13.50;;;;;;;11.02;86.38;100668.65;127159;1278;107299;-71
2022/10/11 07:00:14;;;;;;;19.40;14.40;;;;;;;10.96;86.59;100674.04;126899;1286;108137;-70
2022/10/11 07:03:19;;;;;;;18.80;13.30;;;;;;;10.90;87.05;100683.52;126826;1286;106578;-69
2022/10/11 07:06:27;;;;;;;17.20;12.30;;;;;;;10.86;87.24;100690.85;126869;1286;108017;-70
2022/10/11 07:09:34;;;;;;;21.50;14.70;;;;;;;10.89;86.89;100690.89;126847;1278;108203;-70
2022/10/11 07:12:42;;;;;;;21.90;15.30;;;;;;;11.07;86.76;100685.31;126907;1278;107239;-69
2022/10/11 07:15:48;;;;;;;24.70;18.30;;;;;;;11.24;86.22;100685.64;127087;1272;108168;-69
2022/10/11 07:18:57;;;;;;;25.30;17.10;;;;;;;11.53;85.97;100687.73;126941;1279;107512;-70
2022/10/11 07:22:02;;;;;;;21.20;13.50;;;;;;;11.72;85.56;100687.25;127131;1279;107349;-71
2022/10/11 07:25:08;;;;;;;24.90;18.80;;;;;;;11.76;85.27;100689.87;127117;1278;108170;-70
2022/10/11 07:28:14;;;;;;;18.90;13.90;;;;;;;11.71;85.10;100695.95;127107;1279;107533;-70
2022/10/11 07:31:30;;;;;;;19.10;13.70;;;;;;;11.74;85.37;100705.39;127035;1286;107899;-72
2022/10/11 07:34:36;;;;;;;21.30;16.30;;;;;;;11.86;85.07;100709.12;127000;1280;107557;-70
2022/10/11 07:37:41;;;;;;;18.00;13.20;;;;;;;11.93;84.72;100716.12;127177;1278;108194;-69
2022/10/11 07:40:47;;;;;;;17.70;12.30;;;;;;;11.92;84.69;100713.10;126886;1278;108162;-69
2022/10/11 07:43:53;;;;;;;17.00;12.40;;;;;;;12.09;84.66;100716.86;126934;1272;108139;-69
2022/10/11 07:46:59;;;;;;;16.40;12.70;;;;;;;12.28;84.71;100717.14;127227;1279;107315;-70
2022/10/11 07:50:06;;;;;;;19.40;14.10;;;;;;;12.47;84.46;100720.20;126936;1279;107604;-70
2022/10/11 07:53:11;;;;;;;17.20;12.90;;;;;;;12.64;84.10;100726.19;126651;1286;106580;-70
2022/10/11 07:56:18;;;;;;;15.30;12.50;;;;;;;12.66;82.52;100732.96;126877;1279;107899;-69
2022/10/11 07:59:24;;;;;;;16.90;11.60;;;;;;;12.59;82.85;100731.50;126778;1280;107790;-69
2022/10/11 08:02:29;;;;;;;21.30;15.20;;;;;;;12.59;82.77;100733.30;126902;1286;108173;-69
2022/10/11 08:05:36;;;;;;;13.50;11.00;;;;;;;12.70;82.97;100735.24;126897;1279;108075;-69
2022/10/11 08:08:42;;;;;;;21.20;11.80;;;;;;;12.76;82.27;100736.39;126740;1271;107879;-70
2022/10/11 08:11:48;;;;;;;13.40;10.60;;;;;;;12.80;81.66;100739.34;126895;1279;108135;-69
2022/10/11 08:14:55;;;;;;;16.80;11.30;;;;;;;12.68;81.57;100746.33;126882;1279;107812;-71
2022/10/11 08:18:01;;;;;;;12.00;9.10;;;;;;;12.71;82.13;100747.23;126830;1286;107356;-70
2022/10/11 08:21:09;;;;;;;13.70;10.00;;;;;;;12.77;81.76;100752.17;126974;1279;108141;-70
2022/10/11 08:24:19;;;;;;;13.00;9.50;;;;;;;12.81;81.90;100749.45;126779;1271;107538;-70
2022/10/11 08:27:24;;;;;;;11.00;8.80;;;;;;;12.81;81.03;100754.75;126860;1279;108055;-69
2022/10/11 08:30:30;;;;;;;10.90;8.00;;;;;;;12.82;81.34;100757.19;126819;1272;107995;-70
2022/10/11 08:33:35;;;;;;;12.60;8.60;;;;;;;12.88;81.28;100759.62;126812;1279;106494;-69
2022/10/11 08:36:41;;;;;;;13.90;8.70;;;;;;;13.03;81.23;100761.11;126798;1286;107266;-71
2022/10/11 08:39:46;;;;;;;14.00;8.80;;;;;;;13.23;80.39;100763.92;126917;1278;108356;-70
2022/10/11 08:42:57;;;;;;;13.80;7.70;;;;;;;13.41;79.19;100766.60;126964;1279;107954;-71
2022/10/11 08:46:05;;;;;;;9.30;8.10;;;;;;;13.42;77.90;100774.15;126857;1279;106789;-68
2022/10/11 08:49:14;;;;;;;13.70;7.70;;;;;;;13.25;78.15;100775.72;126842;1279;107091;-69
2022/10/11 08:52:27;;;;;;;9.90;7.30;;;;;;;13.10;78.18;100783.14;126859;1286;107512;-69
2022/10/11 08:55:38;;;;;;;11.00;6.50;;;;;;;13.00;78.73;100782.52;126926;1279;107181;-69
2022/10/11 08:58:51;;;;;;;13.30;7.10;;;;;;;12.85;78.19;100782.19;126990;1278;107900;-70
2022/10/11 09:02:03;;;;;;;11.00;6.40;;;;;;;12.81;78.11;100787.45;126811;1278;108217;-69
2022/10/11 09:05:12;;;;;;;;;;;;;;;12.85;78.93;100785.47;127067;1280;107394;-72
2022/10/11 09:08:27;;;;;;;6.80;5.50;;;;;;;12.96;78.83;100788.40;127053;1278;107426;-71
2022/10/11 09:11:45;;;;;;;8.70;6.10;;;;;;;13.09;79.01;100792.19;127213;1278;106713;-71
2022/10/11 09:15:07;;;;;;;7.60;4.80;;;;;;;13.16;78.58;100793.90;127236;1278;107359;-72
2022/10/11 09:18:30;;;;;;;7.90;5.30;;;;;;;13.20;76.75;100801.98;127367;1279;106795;-71
2022/10/11 09:21:45;;;;;;;8.20;5.20;;;;;;;13.20;77.42;100798.70;127593;1279;108159;-71
2022/10/11 09:25:09;;;;;;;7.60;4.90;;;;;;;13.24;78.34;100799.86;127321;1278;107479;-71
2022/10/11 09:28:22;;;;;;;9.40;5.50;;;;;;;13.35;77.80;100803.65;127296;1286;107602;-71
2022/10/11 09:31:29;;;;;;;6.20;4.80;;;;;;;13.30;77.07;100811.27;126834;1278;107417;-70
2022/10/11 09:34:37;;;;;;;9.70;5.50;;;;;;;13.19;76.36;100814.36;126953;1279;107566;-70
2022/10/11 09:37:52;;;;;;;9.30;4.00;;;;;;;13.07;76.07;100816.81;126854;1284;107583;-68
2022/10/11 09:41:07;;;;;;;7.20;3.40;;;;;;;12.92;75.91;100815.60;126739;1278;109329;-69
2022/10/11 09:44:19;;;;;;;6.00;3.30;;;;;;;12.87;75.39;100822.21;126666;1279;108044;-70
2022/10/11 09:47:27;;;;;;;6.20;3.30;;;;;;;12.98;76.10;100819.32;126906;1272;106891;-69
2022/10/11 09:50:33;;;;;;;5.50;3.50;;;;;;;13.18;76.07;100818.15;126871;1284;106214;-69
2022/10/11 09:53:56;;;;;;;5.10;2.90;;;;;;;13.47;75.56;100818.14;126887;1279;107508;-71
2022/10/11 09:57:01;;;;;;;5.80;3.10;;;;;;;13.63;69.78;100820.95;127109;1278;107512;-72
2022/10/11 10:00:20;;;;;;;5.40;2.70;;;;;;;13.67;71.59;100824.80;126987;1278;107540;-71
2022/10/11 10:03:31;;;;;;;5.50;2.70;;;;;;;13.59;70.31;100825.52;126906;1278;107878;-71
2022/10/11 10:06:38;;;;;;;4.30;2.30;;;;;;;13.61;71.17;100822.80;126895;1279;107618;-74
2022/10/11 10:09:43;;;;;;;5.60;2.70;;;;;;;13.85;72.14;100823.10;126915;1271;107387;-72
2022/10/11 10:12:54;;;;;;;7.30;2.70;;;;;;;14.11;73.05;100821.09;126934;1278;107584;-73
2022/10/11 10:16:01;;;;;;;5.60;2.20;;;;;;;14.23;71.35;100826.50;126982;1285;106407;-72
2022/10/11 10:19:16;;;;;;;5.00;2.40;;;;;;;14.26;71.61;100822.61;126941;1278;107351;-70
2022/10/11 10:22:25;;;;;;;3.20;1.80;;;;;;;14.18;70.13;100830.77;126959;1279;107520;-72
2022/10/11 10:25:37;;;;;;;3.20;2.00;;;;;;;13.96;69.11;100833.11;126961;1278;107436;-72
2022/10/11 10:28:56;;;;;;;4.70;2.60;;;;;;;13.70;67.97;100839.56;126980;1278;107304;-71
2022/10/11 10:32:10;;;;;;;4.00;2.10;;;;;;;13.53;67.73;100845.56;126939;1285;106459;-72
2022/10/11 10:35:26;;;;;;;6.60;2.30;;;;;;;13.50;65.99;100841.91;126914;1278;107333;-71
2022/10/11 10:38:37;;;;;;;4.70;2.10;;;;;;;13.50;67.09;100849.61;126544;1285;578761;-72
2022/10/11 10:41:42;;;;;;;5.80;2.60;;;;;;;13.41;67.10;100848.45;126901;1279;108002;-71
2022/10/11 10:44:52;;;;;;;4.40;2.20;;;;;;;13.32;67.47;100847.66;127032;1286;107553;-71
2022/10/11 10:48:18;;;;;;;5.20;2.50;;;;;;;13.25;67.92;100850.36;126991;1279;108470;-72
2022/10/11 10:51:35;;;;;;;5.60;2.50;;;;;;;13.10;67.80;100855.05;126932;1286;105717;-72
2022/10/11 10:54:52;;;;;;;6.00;2.20;;;;;;;12.98;67.81;100859.12;126992;1272;107247;-72
2022/10/11 10:58:09;;;;;;;6.30;2.30;;;;;;;13.05;67.71;100860.20;127043;1282;106560;-74
2022/10/11 11:01:19;;;;;;;7.70;2.60;;;;;;;13.14;67.67;100862.00;126899;1271;107511;-73
2022/10/11 11:04:31;;;;;;;4.40;2.20;;;;;;;12.98;66.58;100868.05;127010;1278;107479;-73
2022/10/11 11:07:43;;;;;;;5.10;2.00;;;;;;;12.87;67.46;100869.69;126956;1278;107361;-72
2022/10/11 11:10:59;;;;;;;4.80;2.00;;;;;;;12.95;65.79;100873.71;126967;1285;107373;-72
2022/10/11 11:14:15;;;;;;;5.20;1.90;;;;;;;13.10;66.90;100867.41;126912;1278;106588;-73
2022/10/11 11:17:32;;;;;;;4.50;2.00;;;;;;;13.25;66.31;100870.90;127003;1278;107618;-72
2022/10/11 11:20:51;;;;;;;6.20;2.10;;;;;;;13.33;63.68;100871.75;126949;1278;106753;-72
2022/10/11 11:24:06;;;;;;;6.00;2.40;;;;;;;13.40;64.19;100868.37;126884;1278;106604;-73
2022/10/11 11:27:22;;;;;;;4.90;2.30;;;;;;;13.53;64.68;100870.05;126922;1278;107414;-72
2022/10/11 11:30:40;;;;;;;5.20;1.90;;;;;;;13.66;65.85;100867.09;127056;1279;106755;-73
2022/10/11 11:33:56;;;;;;;5.70;1.90;;;;;;;13.84;65.85;100864.60;127071;1278;106729;-72
2022/10/11 11:37:05;;;;;;;5.70;2.10;;;;;;;14.05;66.84;100869.11;127076;1285;106744;-72
2022/10/11 11:40:18;;;;;;;6.90;2.80;;;;;;;14.28;66.92;100862.83;126876;1285;105578;-72
2022/10/11 11:43:31;;;;;;;3.10;1.80;;;;;;;14.44;65.35;100873.25;127087;1279;107537;-72
2022/10/11 11:46:41;;;;;;;3.20;1.70;;;;;;;14.48;64.90;100874.46;126962;1278;106446;-72
2022/10/11 11:49:53;;;;;;;3.30;1.70;;;;;;;14.37;63.43;100876.75;127039;1279;107457;-72
2022/10/11 11:53:00;;;;;;;4.70;1.50;;;;;;;14.30;62.89;100873.48;127045;1285;107548;-72
2022/10/11 11:56:16;;;;;;;5.70;1.60;;;;;;;14.25;62.58;100874.76;126976;1280;108555;-72
2022/10/11 11:59:27;;;;;;;4.00;1.30;;;;;;;14.21;62.92;100879.84;126983;1279;107330;-72
2022/10/11 12:02:43;;;;;;;5.50;1.60;;;;;;;14.21;62.01;100873.74;126960;1279;105513;-72
2022/10/11 12:06:19;;;;;;;4.80;1.60;;;;;;;14.20;60.52;100879.23;126993;1280;107513;-72
2022/10/11 12:09:25;;;;;;;4.00;1.80;;;;;;;14.25;61.42;100875.50;127183;1279;106326;-74
2022/10/11 12:12:35;;;;;;;6.80;1.60;;;;;;;14.30;61.07;100883.23;127037;1278;107478;-76
2022/10/11 12:15:54;;;;;;;3.40;1.50;;;;;;;14.30;59.52;100880.29;127082;1279;106666;-74
2022/10/11 12:19:03;;;;;;;4.60;1.70;;;;;;;14.31;60.63;100883.64;126931;1284;107431;-77
2022/10/11 12:22:41;;;;;;;6.70;1.60;;;;;;;14.32;61.52;100879.21;126969;1284;107687;-71
2022/10/11 12:26:07;;;;;;;5.90;2.10;;;;;;;14.35;62.21;100880.16;126677;1282;107431;-73
2022/10/11 12:29:54;;;;;;;4.40;1.60;;;;;;;14.31;59.35;100882.88;126624;1274;106553;-72
2022/10/11 12:33:13;;;;;;;4.40;1.40;;;;;;;14.21;58.51;100882.02;126720;1282;107337;-72
2022/10/11 12:36:36;;;;;;;6.70;2.00;;;;;;;14.13;58.30;100886.59;126737;1287;107360;-71
2022/10/11 12:39:50;;;;;;;3.60;1.40;;;;;;;14.13;59.05;100885.48;126801;1282;106387;-74
2022/10/11 12:43:22;;;;;;;3.90;1.60;;;;;;;14.09;58.77;100895.36;127105;1278;107492;-72
2022/10/11 12:47:03;;;;;;;3.90;1.40;;;;;;;14.05;59.55;100893.29;127040;1278;107215;-71
2022/10/11 12:50:17;;;;;;;4.40;1.50;;;;;;;14.15;60.67;100894.41;127252;1278;107536;-73
2022/10/11 12:53:53;;;;;;;7.10;3.80;;;;;;;14.22;58.95;100897.69;127038;1281;107287;-72
2022/10/11 12:57:20;;;;;;;3.60;1.70;;;;;;;14.28;60.29;100900.27;126781;1282;107513;-72
2022/10/11 13:00:28;;;;;;;7.50;3.60;;;;;;;14.36;61.24;100904.16;126773;1282;107319;-72
2022/10/11 13:03:39;;;;;;;5.20;1.80;;;;;;;14.38;61.34;100904.21;126870;1282;107410;-72
2022/10/11 13:06:49;;;;;;;4.40;1.70;;;;;;;14.27;60.52;100903.19;126733;1282;108500;-72
2022/10/11 13:09:55;;;;;;;4.40;1.80;;;;;;;14.14;60.55;100907.63;126768;1281;106103;-71
2022/10/11 13:13:03;;;;;;;4.00;1.60;;;;;;;14.08;61.07;100909.84;126749;1281;107438;-72
2022/10/11 13:16:13;;;;;;;3.90;1.90;;;;;;;14.18;61.54;100907.68;126776;1278;107417;-72
2022/10/11 13:19:21;;;;;;;5.60;2.80;;;;;;;14.36;61.23;100902.79;126769;1288;107542;-73
2022/10/11 13:22:27;;;;;;;6.60;3.60;;;;;;;14.49;61.38;100903.94;126677;1281;107346;-74
2022/10/11 13:25:38;;;;;;;4.50;2.10;;;;;;;14.56;60.73;100909.80;126894;1278;107524;-73
2022/10/11 13:28:44;;;;;;;5.90;2.70;;;;;;;14.48;59.28;100910.98;126913;1278;107499;-74
2022/10/11 13:31:50;;;;;;;10.60;6.60;;;;;;;14.39;59.60;100912.83;126954;1279;107424;-74
2022/10/11 13:34:58;;;;;;;6.10;2.60;;;;;;;14.32;59.45;100913.78;126923;1278;107484;-73
2022/10/11 13:38:07;;;;;;;27.00;19.90;;;;;;;14.25;60.94;100914.09;127073;1278;107548;-73
2022/10/11 13:41:12;;;;;;;7.00;3.50;;;;;;;14.24;60.29;100914.61;127014;1280;107489;-73
2022/10/11 13:44:18;;;;;;;46.10;24.60;;;;;;;14.24;60.40;100916.63;126966;1271;106593;-73
2022/10/11 13:47:27;;;;;;;94.90;39.00;;;;;;;14.30;60.13;100914.52;127091;1279;107522;-73
2022/10/11 13:50:33;;;;;;;15.70;6.80;;;;;;;14.39;59.94;100917.34;126986;1279;107093;-76
2022/10/11 13:53:56;;;;;;;8.30;4.20;;;;;;;14.46;60.19;100917.83;127011;1286;108706;-71
2022/10/11 13:57:02;;;;;;;33.40;23.00;;;;;;;14.56;60.01;100918.39;127011;1284;106544;-71
2022/10/11 14:00:25;;;;;;;107.50;48.40;;;;;;;14.65;59.51;100919.84;126874;1286;107415;-71
2022/10/11 14:03:41;;;;;;;35.90;16.80;;;;;;;14.64;60.16;100915.67;126924;1285;107494;-73
2022/10/11 14:06:52;;;;;;;35.30;21.60;;;;;;;14.55;59.36;100918.00;127005;1279;106686;-73
2022/10/11 14:09:58;;;;;;;12.90;7.60;;;;;;;14.39;59.19;100920.52;127000;1278;109223;-74
2022/10/11 14:13:07;;;;;;;19.90;12.30;;;;;;;14.20;59.28;100919.13;127009;1285;107521;-74
2022/10/11 14:16:27;;;;;;;9.40;6.10;;;;;;;14.03;60.06;100922.90;127033;1279;107333;-74